Arcadia, Indiana
Current Conditions -  °F | °C
As of 7:55 PM on Friday 28 Nov 2014 (Local Time) from KTYQ Reporting Station
Clear Clear  
Wind Chill: 24°   Ceiling: Unl
Heat Index: 32°   Visibility: 10mi
Dew Point: 22°   Wind: 10mph
Humidity: 66%   Direction: 160°SSE
Pressure: 30.08"   Gusts: NA
Location:  40.18°N, 86.02°W
Report Text: KTYQ 290055Z AUTO 16009KT 10SM CLR 00/M06 A3008 RMK AO2 T00001057
Loading
Personal Weather Stations






























Interactive Weather Map New forecast layout! Learn more

10-Day Weather Forecast

Advertisements
Track Severe Weather on mobile